Time;durP1;ratioP1;P1;durP2;ratioP2;P2;SDS_P1;SDS_P2;PMS_P1;PMS_P2;Temp;Humidity;BMP_temperature;BMP_pressure;BME280_temperature;BME280_humidity;BME280_pressure;Samples;Min_cycle;Max_cycle;Signal;HPM_P1;HPM_P2
2022/05/06 00:01:40;;;;;;;;;;;16.20;69.80;;;;;;4960869;28;95035;-51
2022/05/06 00:04:11;;;;;;;;;;;16.20;69.60;;;;;;4960020;28;96167;-51
2022/05/06 00:06:43;;;;;;;;;;;16.30;69.70;;;;;;4960231;28;95211;-54
2022/05/06 00:09:41;;;;;;;;;;;16.30;69.70;;;;;;4960509;28;94896;-52
2022/05/06 00:12:17;;;;;;;;;;;16.30;69.60;;;;;;4960319;28;95137;-56
2022/05/06 00:14:50;;;;;;;;;;;16.30;69.40;;;;;;4959745;28;95919;-56
2022/05/06 00:17:28;;;;;;;;;;;16.30;69.70;;;;;;4958974;28;95711;-56
2022/05/06 00:20:01;;;;;;;;;;;16.30;69.50;;;;;;4960102;28;94926;-55
2022/05/06 00:22:34;;;;;;;;;;;16.30;69.20;;;;;;4957229;28;95271;-57
2022/05/06 00:25:09;;;;;;;;;;;16.30;69.10;;;;;;4960651;28;96095;-56
2022/05/06 00:27:52;;;;;;;;;;;16.40;69.10;;;;;;4962990;28;95536;-54
2022/05/06 00:30:29;;;;;;;;;;;16.40;69.80;;;;;;4962874;28;95231;-61
2022/05/06 00:33:01;;;;;;;;;;;16.40;69.70;;;;;;4945004;28;95292;-51
2022/05/06 00:35:33;;;;;;;;;;;16.40;70.00;;;;;;4962255;28;96325;-51
2022/05/06 00:38:05;;;;;;;;;;;16.40;70.40;;;;;;4962252;28;95104;-58
2022/05/06 00:40:36;;;;;;;;;;;16.50;70.60;;;;;;4963000;28;94928;-55
2022/05/06 00:43:09;;;;;;;;;;;16.50;70.60;;;;;;4963558;28;94979;-60
2022/05/06 00:45:45;;;;;;;;;;;16.50;70.60;;;;;;4962979;28;95913;-53
2022/05/06 00:48:18;;;;;;;;;;;16.60;70.70;;;;;;4963335;28;95594;-52
2022/05/06 00:50:49;;;;;;;;;;;16.60;70.80;;;;;;4963670;28;94952;-57
2022/05/06 00:53:20;;;;;;;;;;;16.60;70.60;;;;;;4964603;28;95158;-54
2022/05/06 00:55:52;;;;;;;;;;;16.60;70.40;;;;;;4963689;28;95789;-55
2022/05/06 00:58:30;;;;;;;;;;;16.70;70.10;;;;;;4962966;28;95498;-54
2022/05/06 01:01:02;;;;;;;;;;;16.70;69.80;;;;;;4962721;28;94952;-59
2022/05/06 01:03:34;;;;;;;;;;;16.80;69.50;;;;;;4963054;28;95292;-54
2022/05/06 01:06:13;;;;;;;;;;;16.80;69.30;;;;;;4961933;28;96384;-50
2022/05/06 01:08:50;;;;;;;;;;;16.90;69.10;;;;;;4962344;28;95974;-51
2022/05/06 01:11:21;;;;;;;;;;;16.90;69.10;;;;;;4962871;28;94927;-55
2022/05/06 01:13:55;;;;;;;;;;;17.00;68.90;;;;;;4962537;28;95487;-53
2022/05/06 01:16:36;;;;;;;;;;;17.00;68.90;;;;;;4944239;28;96143;-54
2022/05/06 01:19:10;;;;;;;;;;;17.00;68.80;;;;;;4961884;28;95909;-55
2022/05/06 01:21:44;;;;;;;;;;;17.10;68.70;;;;;;4944652;28;94989;-54
2022/05/06 01:24:16;;;;;;;;;;;17.10;68.80;;;;;;4962489;28;95307;-51
2022/05/06 01:26:56;;;;;;;;;;;17.10;68.90;;;;;;4960758;28;96067;-55
2022/05/06 01:29:30;;;;;;;;;;;17.10;68.80;;;;;;4961668;28;95751;-54
2022/05/06 01:32:03;;;;;;;;;;;17.10;68.80;;;;;;4960119;28;94875;-56
2022/05/06 01:34:38;;;;;;;;;;;17.10;68.80;;;;;;4962770;28;95174;-52
2022/05/06 01:37:18;;;;;;;;;;;17.20;68.80;;;;;;4943944;28;95113;-54
2022/05/06 01:39:54;;;;;;;;;;;17.30;68.80;;;;;;4961632;28;95979;-57
2022/05/06 01:42:29;;;;;;;;;;;17.30;68.50;;;;;;4961870;28;95001;-56
2022/05/06 01:45:07;;;;;;;;;;;17.30;68.50;;;;;;4962326;28;95255;-57
2022/05/06 01:47:40;;;;;;;;;;;17.40;68.40;;;;;;4944821;28;96174;-53
2022/05/06 01:50:16;;;;;;;;;;;17.40;68.40;;;;;;4962306;28;95788;-50
2022/05/06 01:52:50;;;;;;;;;;;17.50;68.50;;;;;;4962534;28;95046;-49
2022/05/06 01:55:22;;;;;;;;;;;17.50;68.30;;;;;;4945145;28;95373;-49
2022/05/06 01:58:05;;;;;;;;;;;17.50;68.20;;;;;;4960245;28;98505;-51
2022/05/06 02:00:41;;;;;;;;;;;17.60;68.20;;;;;;4961336;28;95968;-51
2022/05/06 02:06:18;;;;;;;;;;;17.60;68.20;;;;;;4962176;28;94992;-49
2022/05/06 02:08:59;;;;;;;;;;;17.70;68.10;;;;;;4958937;28;96551;-54
2022/05/06 02:11:47;;;;;;;;;;;17.70;68.10;;;;;;4953539;28;95902;-56
2022/05/06 02:14:18;;;;;;;;;;;17.80;68.00;;;;;;4961491;28;94951;-55
2022/05/06 02:17:17;;;;;;;;;;;17.90;67.80;;;;;;4959754;28;95285;-43
2022/05/06 02:20:16;;;;;;;;;;;17.90;67.90;;;;;;4943183;28;96098;-44
2022/05/06 02:23:19;;;;;;;;;;;18.00;67.60;;;;;;4915906;28;95355;-45
2022/05/06 02:26:11;;;;;;;;;;;18.00;67.60;;;;;;4956613;28;95359;-45
2022/05/06 02:28:58;;;;;;;;;;;18.00;67.60;;;;;;4961646;28;95165;-46
2022/05/06 02:34:20;;;;;;;;;;;18.10;67.50;;;;;;4960969;28;95229;-45
2022/05/06 02:36:56;;;;;;;;;;;18.10;67.30;;;;;;4961181;28;94914;-43
2022/05/06 02:39:50;;;;;;;;;;;18.30;67.20;;;;;;4961328;28;95270;-44
2022/05/06 02:42:25;;;;;;;;;;;18.50;66.60;;;;;;4943223;28;95028;-43
2022/05/06 02:44:56;;;;;;;;;;;18.60;66.30;;;;;;4960764;28;95588;-47
2022/05/06 02:47:26;;;;;;;;;;;18.70;66.10;;;;;;4942343;28;95019;-47
2022/05/06 02:49:57;;;;;;;;;;;18.70;65.80;;;;;;4944228;28;95350;-44
2022/05/06 02:52:30;;;;;;;;;;;18.80;65.60;;;;;;4943706;28;95142;-47
2022/05/06 02:55:01;;;;;;;;;;;18.90;65.50;;;;;;4961525;28;95919;-47
2022/05/06 02:57:32;;;;;;;;;;;19.00;65.20;;;;;;4960000;28;95137;-47
2022/05/06 03:00:04;;;;;;;;;;;19.10;64.90;;;;;;4961543;28;95183;-47
2022/05/06 03:02:36;;;;;;;;;;;19.00;64.40;;;;;;4958664;28;97687;-44
2022/05/06 03:05:09;;;;;;;;;;;18.90;64.50;;;;;;4960125;28;95809;-46
2022/05/06 03:07:41;;;;;;;;;;;18.80;64.80;;;;;;4960606;28;94961;-45
2022/05/06 03:10:15;;;;;;;;;;;18.70;65.00;;;;;;4961046;28;95282;-45
2022/05/06 03:12:47;;;;;;;;;;;18.70;65.10;;;;;;4960365;28;95892;-45
2022/05/06 03:15:21;;;;;;;;;;;18.70;65.10;;;;;;4959967;28;95397;-46
2022/05/06 03:18:01;;;;;;;;;;;18.70;65.10;;;;;;4960241;28;95012;-44
2022/05/06 03:20:33;;;;;;;;;;;18.70;65.20;;;;;;4960974;28;95184;-48
2022/05/06 03:23:05;;;;;;;;;;;18.70;65.20;;;;;;4943144;28;96751;-46
2022/05/06 03:25:37;;;;;;;;;;;18.70;65.20;;;;;;4960470;28;95284;-48
2022/05/06 03:28:09;;;;;;;;;;;18.60;65.10;;;;;;4960703;28;95057;-51
2022/05/06 03:30:47;;;;;;;;;;;18.50;64.90;;;;;;4958095;28;95211;-46
2022/05/06 03:33:30;;;;;;;;;;;18.40;65.30;;;;;;4960117;28;96361;-45
2022/05/06 03:36:16;;;;;;;;;;;18.30;65.40;;;;;;4942329;28;95740;-45
2022/05/06 03:39:05;;;;;;;;;;;18.30;65.60;;;;;;4960408;28;95038;-45
2022/05/06 03:41:47;;;;;;;;;;;18.20;65.60;;;;;;4952278;28;95325;-45
2022/05/06 03:44:21;;;;;;;;;;;18.20;65.90;;;;;;4942479;28;95055;-47
2022/05/06 03:46:54;;;;;;;;;;;18.20;65.90;;;;;;4942013;28;95252;-47
2022/05/06 03:49:35;;;;;;;;;;;18.20;65.80;;;;;;4943289;28;95109;-44
2022/05/06 03:52:05;;;;;;;;;;;18.20;65.90;;;;;;4961662;28;95139;-45
2022/05/06 03:54:36;;;;;;;;;;;18.20;65.90;;;;;;4960668;28;96194;-45
2022/05/06 03:57:13;;;;;;;;;;;18.20;65.80;;;;;;4960342;28;95807;-45
2022/05/06 03:59:45;;;;;;;;;;;18.20;65.90;;;;;;4941496;28;95053;-44
2022/05/06 04:02:18;;;;;;;;;;;18.10;65.90;;;;;;4960075;28;95303;-44
2022/05/06 04:04:54;;;;;;;;;;;18.10;65.90;;;;;;4927360;28;95192;-45
2022/05/06 04:07:28;;;;;;;;;;;18.10;66.00;;;;;;4942253;28;95004;-44
2022/05/06 04:09:58;;;;;;;;;;;18.10;66.00;;;;;;4960046;28;94945;-46
2022/05/06 04:12:30;;;;;;;;;;;18.10;66.00;;;;;;4942431;28;95504;-47
2022/05/06 04:15:06;;;;;;;;;;;18.10;66.10;;;;;;4941814;28;95403;-44
2022/05/06 04:17:40;;;;;;;;;;;18.10;66.10;;;;;;4939733;28;95856;-45
2022/05/06 04:26:00;;;;;;;;;;;18.10;66.40;;;;;;4959658;28;95972;-47
2022/05/06 04:28:35;;;;;;;;;;;18.10;66.50;;;;;;4941444;28;95304;-44
2022/05/06 04:31:07;;;;;;;;;;;18.10;66.60;;;;;;4957520;28;94914;-44
2022/05/06 04:33:43;;;;;;;;;;;18.10;66.80;;;;;;4959528;28;94986;-45
2022/05/06 04:36:24;;;;;;;;;;;18.10;66.80;;;;;;4941370;28;96451;-46
2022/05/06 04:39:04;;;;;;;;;;;18.20;66.70;;;;;;4959148;28;95113;-46
2022/05/06 04:41:42;;;;;;;;;;;18.20;66.60;;;;;;4941583;28;95075;-45
2022/05/06 04:44:16;;;;;;;;;;;18.10;66.80;;;;;;4959755;28;95330;-46
2022/05/06 04:46:48;;;;;;;;;;;18.10;66.80;;;;;;4958747;28;96515;-46
2022/05/06 04:49:19;;;;;;;;;;;18.10;66.80;;;;;;4943196;28;95302;-46
2022/05/06 04:51:51;;;;;;;;;;;18.10;66.90;;;;;;4960666;28;94929;-48
2022/05/06 04:54:25;;;;;;;;;;;18.10;67.10;;;;;;4960556;28;95301;-47
2022/05/06 04:56:57;;;;;;;;;;;18.10;67.00;;;;;;4942203;28;96384;-45
2022/05/06 04:59:36;;;;;;;;;;;18.10;67.00;;;;;;4959171;28;95735;-47
2022/05/06 05:02:08;;;;;;;;;;;18.20;67.10;;;;;;4940780;28;95098;-48
2022/05/06 05:04:40;;;;;;;;;;;18.10;67.20;;;;;;4959572;28;95222;-45
2022/05/06 05:07:15;;;;;;;;;;;18.20;67.20;;;;;;4958702;28;96038;-44
2022/05/06 05:09:54;;;;;;;;;;;18.20;67.30;;;;;;4940989;28;95662;-47
2022/05/06 05:12:26;;;;;;;;;;;18.20;67.30;;;;;;4962132;28;94927;-47
2022/05/06 05:14:57;;;;;;;;;;;18.20;67.30;;;;;;4963028;28;95156;-48
2022/05/06 05:17:32;;;;;;;;;;;18.20;67.30;;;;;;4960961;28;96054;-46
2022/05/06 05:20:06;;;;;;;;;;;18.20;67.30;;;;;;4961590;28;95615;-47
2022/05/06 05:22:39;;;;;;;;;;;18.20;67.30;;;;;;4943870;28;95052;-45
2022/05/06 05:25:13;;;;;;;;;;;18.20;67.40;;;;;;4962335;28;95423;-46
2022/05/06 05:27:46;;;;;;;;;;;18.10;67.40;;;;;;4961404;28;96359;-45
2022/05/06 05:30:26;;;;;;;;;;;18.20;67.40;;;;;;4961737;28;95374;-46
2022/05/06 05:33:00;;;;;;;;;;;18.10;67.30;;;;;;4961029;28;95610;-45
2022/05/06 05:35:31;;;;;;;;;;;18.20;67.50;;;;;;4962407;28;95305;-45
2022/05/06 05:38:06;;;;;;;;;;;18.20;67.40;;;;;;4961814;28;95944;-45
2022/05/06 05:40:39;;;;;;;;;;;18.20;67.30;;;;;;4961523;28;95560;-46
2022/05/06 05:49:02;;;;;;;;;;;18.20;67.30;;;;;;4962308;28;96924;-46
2022/05/06 05:51:34;;;;;;;;;;;18.20;67.40;;;;;;4962143;28;95426;-47
2022/05/06 05:54:06;;;;;;;;;;;18.20;67.40;;;;;;4962870;28;94878;-47
2022/05/06 05:56:39;;;;;;;;;;;18.20;67.60;;;;;;4963062;28;95181;-50
2022/05/06 05:59:13;;;;;;;;;;;18.10;67.40;;;;;;4960310;28;96046;-50
2022/05/06 06:01:43;;;;;;;;;;;18.10;67.50;;;;;;4951369;28;95518;-48
2022/05/06 06:04:16;;;;;;;;;;;18.10;67.50;;;;;;4962313;28;94928;-46
2022/05/06 06:06:52;;;;;;;;;;;18.10;67.60;;;;;;4962618;28;95182;-45
2022/05/06 06:09:27;;;;;;;;;;;18.10;67.60;;;;;;4944401;28;96027;-46
2022/05/06 06:12:04;;;;;;;;;;;18.10;67.50;;;;;;4961051;28;95122;-49
2022/05/06 06:14:36;;;;;;;;;;;18.00;67.60;;;;;;4928177;28;95024;-47
2022/05/06 06:17:08;;;;;;;;;;;18.10;68.00;;;;;;4942582;28;95491;-56
2022/05/06 06:19:40;;;;;;;;;;;18.20;67.50;;;;;;4960546;28;95678;-54
2022/05/06 06:22:12;;;;;;;;;;;18.30;66.90;;;;;;4959968;28;95595;-50
2022/05/06 06:25:03;;;;;;;;;;;18.40;66.70;;;;;;4961196;28;94998;-50
2022/05/06 06:27:36;;;;;;;;;;;18.50;66.20;;;;;;4943870;28;95387;-51
2022/05/06 06:30:12;;;;;;;;;;;18.50;66.40;;;;;;4961014;28;96024;-56
2022/05/06 06:32:57;;;;;;;;;;;18.50;66.20;;;;;;4942966;28;102294;-55
2022/05/06 06:35:28;;;;;;;;;;;18.60;66.80;;;;;;4943627;28;95019;-54
2022/05/06 06:38:02;;;;;;;;;;;18.60;66.70;;;;;;4961610;28;95250;-55
2022/05/06 06:40:38;;;;;;;;;;;18.60;66.80;;;;;;4950436;28;96085;-55
2022/05/06 06:43:19;;;;;;;;;;;18.60;66.80;;;;;;4961024;28;95285;-52
2022/05/06 06:46:12;;;;;;;;;;;18.50;66.80;;;;;;4961395;28;95122;-49
2022/05/06 06:49:02;;;;;;;;;;;18.50;66.80;;;;;;4945290;28;94927;-53
2022/05/06 06:51:51;;;;;;;;;;;18.50;66.80;;;;;;4958759;28;95536;-49
2022/05/06 06:54:25;;;;;;;;;;;18.40;66.80;;;;;;4961666;28;95619;-56
2022/05/06 06:56:55;;;;;;;;;;;18.40;66.90;;;;;;4962018;28;94914;-50
2022/05/06 06:59:27;;;;;;;;;;;18.30;66.80;;;;;;4961506;28;95021;-53
2022/05/06 07:01:58;;;;;;;;;;;18.30;66.80;;;;;;4959745;28;96044;-52
2022/05/06 07:04:29;;;;;;;;;;;18.30;67.00;;;;;;4961209;28;95279;-51
2022/05/06 07:12:44;;;;;;;;;;;18.20;67.00;;;;;;4960478;28;95791;-50
2022/05/06 07:15:17;;;;;;;;;;;18.20;67.10;;;;;;4960414;28;95201;-51
2022/05/06 07:17:50;;;;;;;;;;;18.10;65.60;;;;;;4960576;28;94991;-49
2022/05/06 07:20:21;;;;;;;;;;;18.10;67.10;;;;;;4960757;28;95112;-53
2022/05/06 07:22:53;;;;;;;;;;;18.10;67.30;;;;;;4960298;28;95826;-49
2022/05/06 07:25:25;;;;;;;;;;;18.10;67.40;;;;;;4960244;28;95233;-51
2022/05/06 07:27:56;;;;;;;;;;;18.00;67.40;;;;;;4960732;28;94907;-50
2022/05/06 07:30:28;;;;;;;;;;;18.00;67.40;;;;;;4960604;28;95169;-51
2022/05/06 07:32:59;;;;;;;;;;;18.00;67.40;;;;;;4960247;28;95811;-49
2022/05/06 07:35:30;;;;;;;;;;;18.00;68.00;;;;;;4959750;28;95223;-49
2022/05/06 07:38:01;;;;;;;;;;;17.90;67.40;;;;;;4960344;28;94962;-55
2022/05/06 07:40:33;;;;;;;;;;;18.00;67.60;;;;;;4960684;28;95082;-49
2022/05/06 07:43:04;;;;;;;;;;;17.90;67.50;;;;;;4960039;28;96416;-48
2022/05/06 07:45:36;;;;;;;;;;;17.80;67.50;;;;;;4960191;28;95756;-49
2022/05/06 07:48:09;;;;;;;;;;;17.80;67.60;;;;;;4927676;28;95016;-53
2022/05/06 07:50:44;;;;;;;;;;;17.80;67.60;;;;;;4961642;28;95154;-54
2022/05/06 07:53:19;;;;;;;;;;;17.80;67.70;;;;;;4961043;28;96394;-52
2022/05/06 07:55:54;;;;;;;;;;;17.80;67.70;;;;;;4960160;28;95387;-49
2022/05/06 07:58:25;;;;;;;;;;;17.70;67.70;;;;;;4960379;28;94943;-52
2022/05/06 08:00:57;;;;;;;;;;;17.80;67.60;;;;;;4960474;28;95340;-50
2022/05/06 08:06:19;;;;;;;;;;;17.90;66.60;;;;;;4942080;28;95825;-49
2022/05/06 08:08:51;;;;;;;;;;;18.00;66.20;;;;;;4959836;28;95009;-53
2022/05/06 08:11:24;;;;;;;;;;;18.00;66.10;;;;;;4960384;28;95138;-50
2022/05/06 08:13:55;;;;;;;;;;;18.00;66.20;;;;;;4959900;28;95124;-51
2022/05/06 08:16:27;;;;;;;;;;;18.00;66.30;;;;;;4959232;28;95809;-51
2022/05/06 08:18:58;;;;;;;;;;;18.00;66.50;;;;;;4959513;28;95104;-52
2022/05/06 08:21:29;;;;;;;;;;;18.00;65.00;;;;;;4960106;28;95224;-58
2022/05/06 08:24:00;;;;;;;;;;;18.00;66.40;;;;;;4959437;28;95870;-56
2022/05/06 08:26:31;;;;;;;;;;;18.00;65.10;;;;;;4959274;28;95996;-56
2022/05/06 08:29:04;;;;;;;;;;;18.00;66.90;;;;;;4959524;28;94952;-57
2022/05/06 08:31:38;;;;;;;;;;;18.00;66.70;;;;;;4959882;28;95253;-55
2022/05/06 08:34:10;;;;;;;;;;;18.00;66.80;;;;;;4959354;28;95794;-53
2022/05/06 08:36:43;;;;;;;;;;;18.00;66.80;;;;;;4959442;28;95325;-59
2022/05/06 08:39:14;;;;;;;;;;;18.00;66.80;;;;;;4959601;28;94934;-55
2022/05/06 08:41:45;;;;;;;;;;;18.00;66.70;;;;;;4959957;28;95238;-54
2022/05/06 08:52:46;;;;;;;;;;;17.90;67.30;;;;;;4964227;28;95161;-55
2022/05/06 08:55:18;;;;;;;;;;;17.90;67.20;;;;;;4963275;28;95900;-56
2022/05/06 08:57:50;;;;;;;;;;;17.90;67.40;;;;;;4963206;28;95733;-56
2022/05/06 09:00:28;;;;;;;;;;;17.90;67.50;;;;;;4963144;28;94917;-56
2022/05/06 09:02:58;;;;;;;;;;;17.90;67.50;;;;;;4963821;28;95138;-56
2022/05/06 09:05:31;;;;;;;;;;;17.80;67.40;;;;;;4962536;28;96014;-54
2022/05/06 09:08:03;;;;;;;;;;;17.80;67.60;;;;;;4962690;28;95453;-57
2022/05/06 09:10:34;;;;;;;;;;;17.80;67.50;;;;;;4962416;28;94931;-55
2022/05/06 09:13:05;;;;;;;;;;;17.80;67.80;;;;;;4963058;28;95173;-56
2022/05/06 09:18:30;;;;;;;;;;;17.70;67.80;;;;;;4962004;28;95186;-54
2022/05/06 09:21:13;;;;;;;;;;;17.70;67.90;;;;;;4962703;28;94944;-56
2022/05/06 09:23:44;;;;;;;;;;;17.70;68.00;;;;;;4962828;28;95117;-55
2022/05/06 09:26:20;;;;;;;;;;;17.70;68.00;;;;;;4945818;28;95804;-55
2022/05/06 09:28:52;;;;;;;;;;;17.60;68.00;;;;;;4962247;28;95325;-56
2022/05/06 09:31:28;;;;;;;;;;;17.60;68.00;;;;;;4962143;28;95015;-56
2022/05/06 09:34:10;;;;;;;;;;;17.60;68.10;;;;;;4962811;28;95097;-56
2022/05/06 09:36:43;;;;;;;;;;;17.60;68.10;;;;;;4962351;28;95794;-56
2022/05/06 09:39:15;;;;;;;;;;;17.60;68.20;;;;;;4961781;28;95392;-55
2022/05/06 09:41:46;;;;;;;;;;;17.50;68.40;;;;;;4961913;28;94948;-56
2022/05/06 09:44:23;;;;;;;;;;;17.60;68.10;;;;;;4962525;28;95023;-59
2022/05/06 09:47:15;;;;;;;;;;;17.70;68.00;;;;;;4962320;28;96298;-58
2022/05/06 09:49:52;;;;;;;;;;;17.80;68.00;;;;;;4962453;28;95258;-59
2022/05/06 09:52:26;;;;;;;;;;;17.80;67.70;;;;;;4955592;28;95230;-58
2022/05/06 09:55:07;;;;;;;;;;;17.70;67.80;;;;;;4963065;28;95149;-56
2022/05/06 09:57:52;;;;;;;;;;;17.70;67.80;;;;;;4944070;28;95113;-56
2022/05/06 10:00:25;;;;;;;;;;;17.80;67.90;;;;;;4961628;28;95276;-57
2022/05/06 10:02:57;;;;;;;;;;;17.70;67.70;;;;;;4944657;28;95116;-57
2022/05/06 10:05:31;;;;;;;;;;;17.70;67.80;;;;;;4945235;28;95251;-56
2022/05/06 10:08:06;;;;;;;;;;;17.70;67.60;;;;;;4962027;28;95845;-56
2022/05/06 10:10:39;;;;;;;;;;;17.70;67.80;;;;;;4944262;28;95298;-55
2022/05/06 10:13:15;;;;;;;;;;;17.70;68.00;;;;;;4961453;28;94964;-56
2022/05/06 10:15:50;;;;;;;;;;;17.80;67.90;;;;;;4961777;28;95348;-56
2022/05/06 10:18:37;;;;;;;;;;;17.80;67.60;;;;;;4943635;28;95076;-57
2022/05/06 10:21:11;;;;;;;;;;;17.80;67.70;;;;;;4961176;28;95841;-60
2022/05/06 10:23:44;;;;;;;;;;;17.80;67.70;;;;;;4961831;28;94940;-60
2022/05/06 10:26:34;;;;;;;;;;;17.80;67.60;;;;;;4961839;28;95042;-61
2022/05/06 10:34:58;;;;;;;;;;;17.80;68.10;;;;;;4962502;28;94936;-59
2022/05/06 10:37:38;;;;;;;;;;;17.90;70.60;;;;;;4961426;28;95484;-60
2022/05/06 10:40:26;;;;;;;;;;;17.90;70.00;;;;;;4944234;28;96507;-60
2022/05/06 10:42:57;;;;;;;;;;;17.90;69.40;;;;;;4961310;28;95931;-61
2022/05/06 10:45:35;;;;;;;;;;;17.90;69.30;;;;;;4945401;28;94983;-61
2022/05/06 10:48:27;;;;;;;;;;;17.90;68.90;;;;;;4962622;28;95189;-61
2022/05/06 10:51:17;;;;;;;;;;;17.80;68.60;;;;;;4962142;28;96615;-60
2022/05/06 10:53:49;;;;;;;;;;;17.80;68.30;;;;;;4961752;28;95064;-61
2022/05/06 10:56:23;;;;;;;;;;;17.70;68.40;;;;;;4960803;28;94964;-61
2022/05/06 10:59:04;;;;;;;;;;;17.70;68.10;;;;;;4961898;28;95116;-61
2022/05/06 11:01:36;;;;;;;;;;;17.70;68.30;;;;;;4960882;28;95984;-61
2022/05/06 11:04:07;;;;;;;;;;;17.70;68.10;;;;;;4961343;28;95225;-61
2022/05/06 11:06:40;;;;;;;;;;;17.70;68.10;;;;;;4961917;28;94899;-61
2022/05/06 11:09:13;;;;;;;;;;;17.80;67.80;;;;;;4961133;28;95404;-62
2022/05/06 11:11:44;;;;;;;;;;;17.70;67.70;;;;;;4960489;28;95869;-62
2022/05/06 11:14:19;;;;;;;;;;;17.80;68.00;;;;;;4960605;28;95446;-61
2022/05/06 11:17:17;;;;;;;;;;;17.80;67.70;;;;;;4959515;28;95034;-62
2022/05/06 11:19:49;;;;;;;;;;;17.80;67.30;;;;;;4961119;28;95152;-61
2022/05/06 11:22:23;;;;;;;;;;;17.80;67.60;;;;;;4961179;28;95815;-62
2022/05/06 11:24:56;;;;;;;;;;;17.80;68.10;;;;;;4961479;28;95175;-62
2022/05/06 11:27:28;;;;;;;;;;;17.80;67.30;;;;;;4960344;28;95033;-62
2022/05/06 11:30:00;;;;;;;;;;;17.80;67.30;;;;;;4960791;28;95177;-62
2022/05/06 11:32:32;;;;;;;;;;;17.80;66.90;;;;;;4941230;28;96150;-62
2022/05/06 11:35:14;;;;;;;;;;;17.80;66.70;;;;;;4960067;28;95229;-62
2022/05/06 11:37:46;;;;;;;;;;;17.80;67.00;;;;;;4960404;28;94973;-62
2022/05/06 11:42:56;;;;;;;;;;;17.80;66.90;;;;;;4960052;28;95796;-62
2022/05/06 11:48:25;;;;;;;;;;;17.80;67.00;;;;;;4961573;28;94680;-61
2022/05/06 11:50:58;;;;;;;;;;;17.80;66.90;;;;;;4961402;28;95381;-60
2022/05/06 11:53:31;;;;;;;;;;;17.80;67.10;;;;;;4960852;28;95773;-59
2022/05/06 11:56:01;;;;;;;;;;;17.80;67.00;;;;;;4960584;28;95414;-58
2022/05/06 11:58:34;;;;;;;;;;;17.70;66.90;;;;;;4960250;28;95097;-60
2022/05/06 12:01:04;;;;;;;;;;;17.70;67.00;;;;;;4960949;28;95187;-59
2022/05/06 12:03:37;;;;;;;;;;;17.70;67.00;;;;;;4960365;28;96359;-59
2022/05/06 12:06:31;;;;;;;;;;;17.70;67.10;;;;;;4959972;28;95056;-58
2022/05/06 12:09:16;;;;;;;;;;;17.60;67.00;;;;;;4960449;28;94986;-58
2022/05/06 12:11:49;;;;;;;;;;;17.60;66.90;;;;;;4960270;28;95253;-59
2022/05/06 12:14:20;;;;;;;;;;;17.60;67.00;;;;;;4942266;28;96687;-59
2022/05/06 12:16:59;;;;;;;;;;;17.60;67.00;;;;;;4958692;28;95202;-59
2022/05/06 12:19:34;;;;;;;;;;;17.50;67.20;;;;;;4960069;28;94968;-59
2022/05/06 12:22:15;;;;;;;;;;;17.50;67.20;;;;;;4963061;28;95161;-59
2022/05/06 12:24:47;;;;;;;;;;;17.50;67.40;;;;;;4945736;28;94900;-59
2022/05/06 12:27:26;;;;;;;;;;;17.50;67.40;;;;;;4963051;28;95158;-59
2022/05/06 12:29:58;;;;;;;;;;;17.50;67.60;;;;;;4963362;28;94920;-59
2022/05/06 12:32:30;;;;;;;;;;;17.40;67.60;;;;;;4945002;28;95124;-60
2022/05/06 12:35:10;;;;;;;;;;;17.40;67.70;;;;;;4963291;28;95001;-59
2022/05/06 12:37:55;;;;;;;;;;;17.40;67.90;;;;;;4962839;28;95360;-59
2022/05/06 12:40:33;;;;;;;;;;;17.30;67.90;;;;;;4963212;28;94904;-57
2022/05/06 12:43:06;;;;;;;;;;;17.30;68.00;;;;;;4945548;28;95296;-59
2022/05/06 12:45:38;;;;;;;;;;;17.30;68.80;;;;;;4963497;28;96354;-59
2022/05/06 12:50:59;;;;;;;;;;;17.20;68.30;;;;;;4964237;28;94936;-59
2022/05/06 12:53:34;;;;;;;;;;;17.20;68.40;;;;;;4964371;28;95283;-59
2022/05/06 12:56:16;;;;;;;;;;;17.20;68.50;;;;;;4963368;28;96279;-60
2022/05/06 12:58:48;;;;;;;;;;;17.20;68.60;;;;;;4963017;28;95811;-59
2022/05/06 13:01:22;;;;;;;;;;;17.20;68.60;;;;;;4963098;28;94995;-60
2022/05/06 13:03:53;;;;;;;;;;;17.20;68.70;;;;;;4964036;28;95134;-60
2022/05/06 13:06:26;;;;;;;;;;;17.20;68.70;;;;;;4961986;28;96086;-60
2022/05/06 13:09:00;;;;;;;;;;;17.10;68.80;;;;;;4929591;28;95823;-61
2022/05/06 13:11:40;;;;;;;;;;;17.10;68.70;;;;;;4963111;28;94887;-61
2022/05/06 13:14:21;;;;;;;;;;;17.10;68.90;;;;;;4963086;28;95137;-61
2022/05/06 13:16:53;;;;;;;;;;;17.10;68.90;;;;;;4961877;28;94974;-61
2022/05/06 13:19:24;;;;;;;;;;;17.00;69.00;;;;;;4944727;28;94898;-61
2022/05/06 13:21:56;;;;;;;;;;;17.00;69.00;;;;;;4962502;28;94930;-59
2022/05/06 13:24:26;;;;;;;;;;;17.10;69.10;;;;;;4962865;28;95412;-60
2022/05/06 13:26:58;;;;;;;;;;;17.00;69.00;;;;;;4962221;28;96319;-60
2022/05/06 13:29:30;;;;;;;;;;;17.00;69.00;;;;;;4962057;28;95710;-60
2022/05/06 13:32:01;;;;;;;;;;;17.00;69.00;;;;;;4960894;28;95038;-60
2022/05/06 13:34:33;;;;;;;;;;;17.00;69.00;;;;;;4945749;28;95284;-60
2022/05/06 13:37:05;;;;;;;;;;;17.00;69.10;;;;;;4961895;28;96318;-64
2022/05/06 13:39:39;;;;;;;;;;;16.90;69.20;;;;;;4961720;28;95807;-60
2022/05/06 13:42:11;;;;;;;;;;;16.90;69.20;;;;;;4962091;28;95048;-60
2022/05/06 13:44:42;;;;;;;;;;;16.90;69.20;;;;;;4962558;28;95154;-61
2022/05/06 13:47:15;;;;;;;;;;;16.90;69.30;;;;;;4961332;28;96014;-60
2022/05/06 13:49:45;;;;;;;;;;;16.90;69.40;;;;;;4962888;28;95819;-60
2022/05/06 13:52:16;;;;;;;;;;;16.80;69.40;;;;;;4963169;28;95150;-61
2022/05/06 13:54:47;;;;;;;;;;;16.80;69.40;;;;;;4963449;28;95043;-60
2022/05/06 14:00:30;;;;;;;;;;;16.80;69.60;;;;;;4961490;28;95404;-61
2022/05/06 14:03:02;;;;;;;;;;;16.80;69.60;;;;;;4961188;28;95017;-61
2022/05/06 14:05:34;;;;;;;;;;;16.70;69.60;;;;;;4962511;28;94986;-60
2022/05/06 14:08:06;;;;;;;;;;;16.70;69.70;;;;;;4962089;28;95788;-59
2022/05/06 14:10:38;;;;;;;;;;;16.70;69.80;;;;;;4961417;28;95250;-60
2022/05/06 14:13:10;;;;;;;;;;;16.70;69.80;;;;;;4961945;28;94924;-60
2022/05/06 14:15:42;;;;;;;;;;;16.70;69.80;;;;;;4962202;28;94944;-61
2022/05/06 14:18:15;;;;;;;;;;;16.70;69.80;;;;;;4961533;28;95779;-61
2022/05/06 14:20:46;;;;;;;;;;;16.60;69.70;;;;;;4961177;28;95453;-60
2022/05/06 14:23:18;;;;;;;;;;;16.60;69.80;;;;;;4945752;28;94986;-59
2022/05/06 14:25:50;;;;;;;;;;;16.60;70.00;;;;;;4962036;28;95098;-60
2022/05/06 14:28:21;;;;;;;;;;;16.60;69.90;;;;;;4961182;28;95809;-60
2022/05/06 14:30:54;;;;;;;;;;;16.60;69.90;;;;;;4959311;28;95755;-58
2022/05/06 14:33:26;;;;;;;;;;;16.60;70.00;;;;;;4961370;28;94932;-60
2022/05/06 14:35:58;;;;;;;;;;;16.60;69.90;;;;;;4962505;28;95087;-60
2022/05/06 14:38:30;;;;;;;;;;;16.50;70.00;;;;;;4961518;28;95811;-61
2022/05/06 14:41:01;;;;;;;;;;;16.50;70.00;;;;;;4961824;28;96464;-60
2022/05/06 14:43:33;;;;;;;;;;;16.50;70.10;;;;;;4960628;28;94970;-60
2022/05/06 14:46:04;;;;;;;;;;;16.50;70.20;;;;;;4962058;28;95280;-60
2022/05/06 14:48:36;;;;;;;;;;;16.40;70.00;;;;;;4962549;28;96381;-60
2022/05/06 14:51:07;;;;;;;;;;;16.50;70.10;;;;;;4944131;28;97569;-60
2022/05/06 14:53:42;;;;;;;;;;;16.50;70.10;;;;;;4962091;28;94969;-60
2022/05/06 14:56:12;;;;;;;;;;;16.50;70.10;;;;;;4962467;28;95154;-60
2022/05/06 14:58:44;;;;;;;;;;;16.40;70.20;;;;;;4961243;28;95864;-59
2022/05/06 15:01:17;;;;;;;;;;;16.40;70.10;;;;;;4960923;28;95210;-59
2022/05/06 15:03:48;;;;;;;;;;;16.40;70.00;;;;;;4961626;28;94900;-59
2022/05/06 15:06:20;;;;;;;;;;;16.40;70.10;;;;;;4961303;28;95284;-59
2022/05/06 15:08:50;;;;;;;;;;;16.30;70.10;;;;;;4960751;28;96458;-60
2022/05/06 15:11:21;;;;;;;;;;;16.30;70.10;;;;;;4960597;28;95272;-60
2022/05/06 15:13:53;;;;;;;;;;;16.30;70.20;;;;;;4961892;28;95042;-60
2022/05/06 15:16:23;;;;;;;;;;;16.30;70.20;;;;;;4961318;28;95131;-59
2022/05/06 15:21:42;;;;;;;;;;;16.20;70.40;;;;;;4960274;28;95267;-61
2022/05/06 15:24:16;;;;;;;;;;;16.20;70.40;;;;;;4944102;28;94979;-60
2022/05/06 15:26:49;;;;;;;;;;;16.20;70.70;;;;;;4961923;28;95178;-60
2022/05/06 15:29:20;;;;;;;;;;;16.20;70.70;;;;;;4961850;28;95804;-61
2022/05/06 15:31:51;;;;;;;;;;;16.20;70.80;;;;;;4958001;28;95825;-58
2022/05/06 15:34:27;;;;;;;;;;;16.20;70.70;;;;;;4960978;28;94925;-59
2022/05/06 15:36:59;;;;;;;;;;;16.10;71.00;;;;;;4961318;28;95156;-57
2022/05/06 15:39:29;;;;;;;;;;;16.10;71.40;;;;;;4943256;28;95880;-58
2022/05/06 15:42:04;;;;;;;;;;;16.00;71.60;;;;;;4960503;28;95421;-57
2022/05/06 15:44:35;;;;;;;;;;;16.00;71.80;;;;;;4960899;28;94996;-58
2022/05/06 15:47:07;;;;;;;;;;;15.90;71.90;;;;;;4960320;28;95246;-57
2022/05/06 15:49:39;;;;;;;;;;;16.00;72.00;;;;;;4960922;28;95818;-59
2022/05/06 15:52:09;;;;;;;;;;;15.90;72.10;;;;;;4942920;28;95095;-58
2022/05/06 15:54:41;;;;;;;;;;;15.90;72.30;;;;;;4960929;28;95794;-58
2022/05/06 15:57:11;;;;;;;;;;;15.90;72.30;;;;;;4961545;28;95196;-59